地図

経路データ

SID SEASON NUMBER BASIN SUBBASIN NAME ISO_TIME NATURE LAT LON WMO_WIND WMO_PRES WMO_AGENCY TRACK_TYPE DIST2LAND LANDFALL IFLAG USA_AGENCY USA_ATCF_ID USA_LAT USA_LON USA_RECORD USA_STATUS USA_WIND USA_PRES USA_SSHS USA_R34_NE USA_R34_SE USA_R34_SW USA_R34_NW USA_R50_NE USA_R50_SE USA_R50_SW USA_R50_NW USA_R64_NE USA_R64_SE USA_R64_SW USA_R64_NW USA_POCI USA_ROCI USA_RMW USA_EYE TOKYO_LAT TOKYO_LON TOKYO_GRADE TOKYO_WIND TOKYO_PRES TOKYO_R50_DIR TOKYO_R50_LONG TOKYO_R50_SHORT TOKYO_R30_DIR TOKYO_R30_LONG TOKYO_R30_SHORT TOKYO_LAND CMA_LAT CMA_LON CMA_CAT CMA_WIND CMA_PRES HKO_LAT HKO_LON HKO_CAT HKO_WIND HKO_PRES NEWDELHI_LAT NEWDELHI_LON NEWDELHI_GRADE NEWDELHI_WIND NEWDELHI_PRES NEWDELHI_CI NEWDELHI_DP NEWDELHI_POCI REUNION_LAT REUNION_LON REUNION_TYPE REUNION_WIND REUNION_PRES REUNION_TNUM REUNION_CI REUNION_RMW REUNION_R34_NE REUNION_R34_SE REUNION_R34_SW REUNION_R34_NW REUNION_R50_NE REUNION_R50_SE REUNION_R50_SW REUNION_R50_NW REUNION_R64_NE REUNION_R64_SE REUNION_R64_SW REUNION_R64_NW BOM_LAT BOM_LON BOM_TYPE BOM_WIND BOM_PRES BOM_TNUM BOM_CI BOM_RMW BOM_R34_NE BOM_R34_SE BOM_R34_SW BOM_R34_NW BOM_R50_NE BOM_R50_SE BOM_R50_SW BOM_R50_NW BOM_R64_NE BOM_R64_SE BOM_R64_SW BOM_R64_NW BOM_ROCI BOM_POCI BOM_EYE BOM_POS_METHOD BOM_PRES_METHOD NADI_LAT NADI_LON NADI_CAT NADI_WIND NADI_PRES WELLINGTON_LAT WELLINGTON_LON WELLINGTON_WIND WELLINGTON_PRES DS824_LAT DS824_LON DS824_STAGE DS824_WIND DS824_PRES TD9636_LAT TD9636_LON TD9636_STAGE TD9636_WIND TD9636_PRES TD9635_LAT TD9635_LON TD9635_WIND TD9635_PRES TD9635_ROCI NEUMANN_LAT NEUMANN_LON NEUMANN_CLASS NEUMANN_WIND NEUMANN_PRES MLC_LAT MLC_LON MLC_CLASS MLC_WIND MLC_PRES USA_GUST BOM_GUST BOM_GUST_PER REUNION_GUST REUNION_GUST_PER USA_SEAHGT USA_SEARAD_NE USA_SEARAD_SE USA_SEARAD_SW USA_SEARAD_NW STORM_SPEED STORM_DIR
1987001S14055 1987 1 SI MM NOT_NAMED 1987-01-01 00:00:00 NR -14.0000 54.5000 main 451 447 __________O___ -1 -14.0000 54.5000 1 2 203
1987001S14055 1987 1 SI MM NOT_NAMED 1987-01-01 03:00:00 NR -14.1094 54.4532 main 447 434 __________P___ -1 -14.1094 54.4532 1 2 203
1987001S14055 1987 1 SI MM NOT_NAMED 1987-01-01 06:00:00 NR -14.2150 54.4051 main 434 431 __________P___ -1 -14.2150 54.4051 1 2 206
1987001S14055 1987 1 SI MM NOT_NAMED 1987-01-01 09:00:00 NR -14.3131 54.3545 main 431 418 __________P___ -1 -14.3131 54.3545 1 2 210
1987001S14055 1987 1 SI MM NOT_NAMED 1987-01-01 12:00:00 NR -14.4000 54.3000 main 418 405 __________O___ -1 -14.4000 54.3000 1 2 214
1987001S14055 1987 1 SI MM NOT_NAMED 1987-01-01 15:00:00 NR -14.4772 54.2401 main 405 403 __________P___ -1 -14.4772 54.2401 1 2 217
1987001S14055 1987 1 SI MM NOT_NAMED 1987-01-01 18:00:00 NR -14.5675 54.1722 main 403 390 __________P___ -1 -14.5675 54.1722 1 3 212
1987001S14055 1987 1 SI MM NOT_NAMED 1987-01-01 21:00:00 NR -14.6990 54.0932 main 390 377 __________P___ -1 -14.6990 54.0932 1 4 207
1987001S14055 1987 1 SI MM NOT_NAMED 1987-01-02 00:00:00 NR -14.9000 54.0000 main 377 364 __________O___ -1 -14.9000 54.0000 1 5 203
1987001S14055 1987 1 SI MM NOT_NAMED 1987-01-02 03:00:00 NR -15.1991 53.8775 main 364 353 __________P___ -1 -15.1991 53.8775 1 7 200
1987001S14055 1987 1 SI MM NOT_NAMED 1987-01-02 06:00:00 NR -15.5676 53.7429 main 343 336 __________P___ -1 -15.5676 53.7429 1 8 198
1987001S14055 1987 1 SI MM NOT_NAMED 1987-01-02 09:00:00 NR -15.9773 53.6118 main 338 333 __________P___ -1 -15.9773 53.6118 1 9 196
1987001S14055 1987 1 SI MM NOT_NAMED 1987-01-02 12:00:00 NR -16.4000 53.5000 main 339 337 __________O___ -1 -16.4000 53.5000 1 8 194
1987001S14055 1987 1 SI MM NOT_NAMED 1987-01-02 15:00:00 NR -16.7968 53.4042 main 347 347 __________P___ -1 -16.7968 53.4042 1 8 191
1987001S14055 1987 1 SI MM NOT_NAMED 1987-01-02 18:00:00 NR -17.1999 53.3328 main 356 356 __________P___ -1 -17.1999 53.3328 1 8 187
1987001S14055 1987 1 SI MM NOT_NAMED 1987-01-02 21:00:00 NR -17.6031 53.2949 main 375 375 __________P___ -1 -17.6031 53.2949 1 8 183
1987001S14055 1987 1 SI MM NOT_NAMED 1987-01-03 00:00:00 NR -18.0000 53.3000 main 394 352 __________O___ -1 -18.0000 53.3000 1 8 175
1987001S14055 1987 1 SI MM NOT_NAMED 1987-01-03 03:00:00 NR -18.3822 53.3645 main 352 318 __________P___ -1 -18.3822 53.3645 1 8 168
1987001S14055 1987 1 SI MM NOT_NAMED 1987-01-03 06:00:00 NR -18.7576 53.4694 main 309 276 __________P___ -1 -18.7576 53.4694 1 8 164
1987001S14055 1987 1 SI MM NOT_NAMED 1987-01-03 09:00:00 NR -19.1291 53.5896 main 276 236 __________P___ -1 -19.1291 53.5896 1 8 164
1987001S14055 1987 1 SI MM NOT_NAMED 1987-01-03 12:00:00 NR -19.5000 53.7000 main 236 205 __________O___ -1 -19.5000 53.7000 1 7 167
1987001S14055 1987 1 SI MM NOT_NAMED 1987-01-03 15:00:00 NR -19.8547 53.7686 main 198 177 __________P___ -1 -19.8547 53.7686 1 7 171
1987001S14055 1987 1 SI MM NOT_NAMED 1987-01-03 18:00:00 NR -20.2125 53.8227 main 177 146 __________P___ -1 -20.2125 53.8227 1 7 173
1987001S14055 1987 1 SI MM NOT_NAMED 1987-01-03 21:00:00 NR -20.5891 53.8655 main 146 135 __________P___ -1 -20.5891 53.8655 1 8 175
1987001S14055 1987 1 SI MM NOT_NAMED 1987-01-04 00:00:00 NR -21.0000 53.9000 main 135 134 __________O___ -1 -21.0000 53.9000 1 9 176
1987001S14055 1987 1 SI MM NOT_NAMED 1987-01-04 03:00:00 NR -21.4641 53.9402 main 141 136 __________P___ -1 -21.4641 53.9402 1 10 176
1987001S14055 1987 1 SI MM NOT_NAMED 1987-01-04 06:00:00 NR -21.9625 53.9723 main 155 155 __________P___ -1 -21.9625 53.9723 1 10 177
1987001S14055 1987 1 SI MM NOT_NAMED 1987-01-04 09:00:00 NR -22.4797 53.9933 main 189 189 __________P___ -1 -22.4797 53.9933 1 10 179
1987001S14055 1987 1 SI MM NOT_NAMED 1987-01-04 12:00:00 NR -23.0000 54.0000 main 232 232 __________O___ -1 -23.0000 54.0000 1 11 187
1987001S14055 1987 1 SI MM NOT_NAMED 1987-01-04 15:00:00 NR -23.5310 53.8505 main 284 284 __________P___ -1 -23.5310 53.8505 1 11 194
1987001S14055 1987 1 SI MM NOT_NAMED 1987-01-04 18:00:00 NR -24.0571 53.7075 main 353 353 __________P___ -1 -24.0571 53.7075 1 10 188
1987001S14055 1987 1 SI MM NOT_NAMED 1987-01-04 21:00:00 NR -24.5546 53.6853 main 403 403 __________P___ -1 -24.5546 53.6853 1 10 169
1987001S14055 1987 1 SI MM NOT_NAMED 1987-01-05 00:00:00 NR -25.0000 53.9000 main 437 437 __________O___ -1 -25.0000 53.9000 1 12 139
1987001S14055 1987 1 SI MM NOT_NAMED 1987-01-05 03:00:00 NR -25.4180 54.5222 main 460 458 __________P___ -1 -25.4180 54.5222 1 15 120
1987001S14055 1987 1 SI MM NOT_NAMED 1987-01-05 06:00:00 NR -25.7705 55.3838 main 492 491 __________P___ -1 -25.7705 55.3838 1 18 111
1987001S14055 1987 1 SI MM NOT_NAMED 1987-01-05 09:00:00 NR -26.0370 56.3541 main 520 520 __________P___ -1 -26.0370 56.3541 1 18 104
1987001S14055 1987 1 SI MM NOT_NAMED 1987-01-05 12:00:00 NR -26.2000 57.3000 main 563 563 __________O___ -1 -26.2000 57.3000 1 16 94
1987001S14055 1987 1 SI MM NOT_NAMED 1987-01-05 15:00:00 NR -26.1527 58.1000 main 593 583 __________P___ -1 -26.1527 58.1000 1 14 83
1987001S14055 1987 1 SI MM NOT_NAMED 1987-01-05 18:00:00 NR -26.0248 58.8374 main 607 607 __________P___ -1 -26.0248 58.8374 1 13 80
1987001S14055 1987 1 SI MM NOT_NAMED 1987-01-05 21:00:00 NR -25.9345 59.4804 main 630 630 __________P___ -1 -25.9345 59.4804 1 10 89
1987001S14055 1987 1 SI MM NOT_NAMED 1987-01-06 00:00:00 NR -26.0000 60.0000 main 658 658 __________O___ -1 -26.0000 60.0000 1 9 115
1987001S14055 1987 1 SI MM NOT_NAMED 1987-01-06 03:00:00 NR -26.3089 60.3797 main 704 704 __________P___ -1 -26.3089 60.3797 1 10 145
1987001S14055 1987 1 SI MM NOT_NAMED 1987-01-06 06:00:00 NR -26.8244 60.6476 main 763 763 __________P___ -1 -26.8244 60.6476 1 12 161
1987001S14055 1987 1 SI MM NOT_NAMED 1987-01-06 09:00:00 NR -27.4778 60.8418 main 843 843 __________P___ -1 -27.4778 60.8418 1 14 167
1987001S14055 1987 1 SI MM NOT_NAMED 1987-01-06 12:00:00 NR -28.2000 61.0000 main 922 __________O___ -1 -28.2000 61.0000 1 15 169

IBTrACS Databaseについて

本データベースは、米国NOAAが公開する1842年以降の世界の熱帯低気圧のベストトラックデータアーカイブInternational Best Track Archive for Climate Stewardship (IBTrACS)を、ウェブで閲覧しやすい形式に変換したものです。

最終更新日:2021-10-08